createdAt,value
2023-01-22T00:01:09.910Z,7.32
2023-01-22T00:03:37.400Z,7.18
2023-01-22T00:06:05.128Z,7.32
2023-01-22T00:08:31.997Z,9.00
2023-01-22T00:10:58.670Z,6.57
2023-01-22T00:13:27.323Z,6.93
2023-01-22T00:15:56.655Z,7.38
2023-01-22T00:18:23.411Z,7.45
2023-01-22T00:20:54.117Z,6.55
2023-01-22T00:25:47.760Z,6.68
2023-01-22T00:28:16.725Z,6.50
2023-01-22T00:30:43.519Z,7.63
2023-01-22T00:33:10.159Z,7.00
2023-01-22T00:35:36.824Z,8.27
2023-01-22T00:38:03.797Z,9.38
2023-01-22T00:40:30.462Z,7.45
2023-01-22T00:42:57.055Z,7.35
2023-01-22T00:45:23.698Z,7.20
2023-01-22T00:47:51.424Z,7.50
2023-01-22T00:50:18.342Z,7.85
2023-01-22T00:52:45.109Z,7.72
2023-01-22T00:55:11.904Z,6.68
2023-01-22T00:57:38.531Z,7.78
2023-01-22T01:00:05.967Z,6.78
2023-01-22T01:02:32.714Z,7.63
2023-01-22T01:05:01.803Z,7.75
2023-01-22T01:07:28.421Z,7.28
2023-01-22T01:09:55.296Z,6.47
2023-01-22T01:12:21.958Z,8.07
2023-01-22T01:14:48.595Z,6.63
2023-01-22T01:17:15.206Z,6.75
2023-01-22T01:19:41.794Z,6.57
2023-01-22T01:22:08.497Z,7.72
2023-01-22T01:24:36.457Z,6.75
2023-01-22T01:27:03.364Z,7.43
2023-01-22T01:29:29.997Z,7.85
2023-01-22T01:31:57.806Z,6.30
2023-01-22T01:34:24.629Z,7.22
2023-01-22T01:36:51.243Z,7.63
2023-01-22T01:39:18.304Z,7.15
2023-01-22T01:41:44.951Z,6.30
2023-01-22T01:44:17.761Z,7.38
2023-01-22T01:46:52.604Z,6.55
2023-01-22T01:49:57.592Z,6.07
2023-01-22T01:52:24.245Z,6.25
2023-01-22T01:54:54.754Z,6.97
2023-01-22T01:57:27.529Z,6.57
2023-01-22T01:59:56.173Z,8.02
2023-01-22T02:02:22.973Z,5.30
2023-01-22T02:04:51.090Z,8.10
2023-01-22T02:07:18.145Z,8.02
2023-01-22T02:09:44.867Z,8.10
2023-01-22T02:12:11.812Z,7.90
2023-01-22T02:14:42.883Z,7.85
2023-01-22T02:17:15.897Z,7.50
2023-01-22T02:19:43.902Z,6.00
2023-01-22T02:22:17.397Z,7.75
2023-01-22T02:24:44.126Z,7.13
2023-01-22T02:27:11.072Z,6.30
2023-01-22T02:29:38.326Z,7.13
2023-01-22T02:32:05.053Z,7.80
2023-01-22T02:34:31.943Z,7.43
2023-01-22T02:36:58.588Z,7.20
2023-01-22T02:39:25.311Z,6.72
2023-01-22T02:41:52.416Z,6.88
2023-01-22T02:44:19.365Z,7.18
2023-01-22T02:46:46.003Z,7.80
2023-01-22T02:49:12.658Z,7.90
2023-01-22T02:51:39.338Z,6.85
2023-01-22T02:54:06.034Z,6.63
2023-01-22T02:56:34.081Z,7.40
2023-01-22T02:59:02.207Z,8.57
2023-01-22T03:01:29.098Z,8.07
2023-01-22T03:04:01.560Z,7.85
2023-01-22T03:06:29.652Z,7.13
2023-01-22T03:08:59.153Z,7.13
2023-01-22T03:11:28.573Z,7.93
2023-01-22T03:14:14.850Z,8.57
2023-01-22T03:17:01.563Z,6.80
2023-01-22T03:19:46.970Z,8.23
2023-01-22T03:22:15.660Z,6.47
2023-01-22T03:24:43.587Z,9.80
2023-01-22T03:27:13.632Z,7.07
2023-01-22T03:29:40.262Z,7.32
2023-01-22T03:32:07.387Z,6.57
2023-01-22T03:34:34.439Z,7.30
2023-01-22T03:37:01.070Z,6.25
2023-01-22T03:39:28.315Z,7.10
2023-01-22T03:41:54.941Z,7.55
2023-01-22T03:44:21.687Z,7.22
2023-01-22T03:46:48.367Z,7.57
2023-01-22T03:49:15.351Z,7.60
2023-01-22T03:51:43.682Z,7.35
2023-01-22T03:54:15.286Z,6.78
2023-01-22T03:56:42.638Z,7.68
2023-01-22T03:59:10.466Z,8.30
2023-01-22T04:01:37.596Z,8.43
2023-01-22T04:04:04.503Z,7.75
2023-01-22T04:06:31.254Z,8.70
2023-01-22T04:08:57.894Z,7.15
2023-01-22T04:11:24.911Z,7.68
2023-01-22T04:13:51.702Z,6.85
2023-01-22T04:16:18.416Z,8.20
2023-01-22T04:18:45.174Z,7.40
2023-01-22T04:21:11.895Z,7.50
2023-01-22T04:23:38.786Z,8.25
2023-01-22T04:26:05.572Z,7.40
2023-01-22T04:28:32.223Z,9.05
2023-01-22T04:30:59.748Z,8.15
2023-01-22T04:33:26.607Z,7.18
2023-01-22T04:35:54.578Z,8.45
2023-01-22T04:38:21.437Z,6.82
2023-01-22T04:40:48.596Z,6.70
2023-01-22T04:43:15.279Z,6.40
2023-01-22T04:45:41.888Z,6.00
2023-01-22T04:48:09.242Z,6.90
2023-01-22T04:50:35.929Z,7.50
2023-01-22T04:53:03.475Z,6.82
2023-01-22T04:55:30.175Z,7.80
2023-01-22T04:57:59.056Z,7.22
2023-01-22T05:00:27.118Z,8.02
2023-01-22T05:02:58.691Z,6.78
2023-01-22T05:05:26.868Z,7.13
2023-01-22T05:07:54.008Z,8.25
2023-01-22T05:10:21.214Z,8.25
2023-01-22T05:12:48.403Z,7.78
2023-01-22T05:15:23.624Z,8.07
2023-01-22T05:17:51.087Z,8.05
2023-01-22T05:20:18.367Z,7.15
2023-01-22T05:22:45.375Z,7.63
2023-01-22T05:25:12.258Z,7.95
2023-01-22T05:27:38.913Z,6.93
2023-01-22T05:30:06.807Z,7.28
2023-01-22T05:32:33.533Z,7.55
2023-01-22T05:35:00.222Z,7.40
2023-01-22T05:37:26.965Z,6.43
2023-01-22T05:39:53.701Z,7.78
2023-01-22T05:42:21.086Z,7.07
2023-01-22T05:44:47.891Z,7.35
2023-01-22T05:47:15.473Z,8.75
2023-01-22T05:49:42.532Z,8.32
2023-01-22T05:52:10.837Z,6.97
2023-01-22T05:54:39.184Z,7.57
2023-01-22T05:57:06.669Z,6.75
2023-01-22T05:59:33.540Z,7.72
2023-01-22T06:02:00.370Z,9.25
2023-01-22T06:04:27.135Z,6.18
2023-01-22T06:06:53.787Z,6.90
2023-01-22T06:09:20.593Z,5.78
2023-01-22T06:11:47.231Z,7.47
2023-01-22T06:14:13.858Z,7.18
2023-01-22T06:16:40.486Z,7.10
2023-01-22T06:19:07.476Z,7.30
2023-01-22T06:21:34.082Z,6.60
2023-01-22T06:24:00.730Z,7.10
2023-01-22T06:26:27.334Z,7.22
2023-01-22T06:28:55.190Z,7.88
2023-01-22T06:31:22.083Z,7.07
2023-01-22T06:33:48.986Z,8.63
2023-01-22T06:36:15.756Z,6.22
2023-01-22T06:38:42.417Z,6.55
2023-01-22T06:41:10.038Z,7.82
2023-01-22T06:43:37.693Z,6.85
2023-01-22T06:46:05.357Z,7.97
2023-01-22T06:48:32.338Z,6.50
2023-01-22T06:51:00.278Z,7.03
2023-01-22T06:53:27.665Z,6.28
2023-01-22T06:55:54.588Z,6.60
2023-01-22T06:58:21.414Z,6.03
2023-01-22T07:00:48.075Z,5.95
2023-01-22T07:03:14.924Z,6.43
2023-01-22T07:05:41.645Z,6.30
2023-01-22T07:08:08.370Z,6.65
2023-01-22T07:10:35.108Z,5.90
2023-01-22T07:13:04.139Z,7.30
2023-01-22T07:15:30.788Z,5.60
2023-01-22T07:17:57.457Z,7.95
2023-01-22T07:20:24.273Z,7.13
2023-01-22T07:22:51.851Z,8.30
2023-01-22T07:25:19.756Z,8.40
2023-01-22T07:27:46.400Z,7.43
2023-01-22T07:30:13.799Z,6.60
2023-01-22T07:32:40.472Z,6.85
2023-01-22T07:35:07.391Z,8.63
2023-01-22T07:37:34.951Z,7.43
2023-01-22T07:40:01.839Z,6.93
2023-01-22T07:42:28.475Z,13.25
2023-01-22T07:44:55.142Z,26.27
2023-01-22T07:47:21.787Z,15.02
2023-01-22T07:49:48.403Z,12.43
2023-01-22T07:52:15.016Z,13.63
2023-01-22T07:54:41.651Z,11.77
2023-01-22T07:57:08.353Z,9.27
2023-01-22T07:59:35.451Z,7.82
2023-01-22T08:02:03.645Z,8.82
2023-01-22T08:04:30.454Z,11.18
2023-01-22T08:06:57.219Z,9.85
2023-01-22T08:09:25.642Z,6.45
2023-01-22T08:11:53.267Z,6.68
2023-01-22T08:14:20.165Z,6.28
2023-01-22T08:16:46.987Z,9.63
2023-01-22T08:19:14.347Z,9.07
2023-01-22T08:21:41.138Z,5.80
2023-01-22T08:24:08.371Z,7.20
2023-01-22T08:26:35.292Z,7.18
2023-01-22T08:29:04.887Z,7.90
2023-01-22T08:31:38.117Z,6.60
2023-01-22T08:34:05.243Z,8.40
2023-01-22T08:36:31.938Z,6.32
2023-01-22T08:38:58.555Z,6.70
2023-01-22T08:41:25.237Z,5.28
2023-01-22T08:43:53.221Z,5.28
2023-01-22T08:46:20.128Z,6.05
2023-01-22T08:48:48.770Z,5.68
2023-01-22T08:51:15.554Z,6.10
2023-01-22T08:53:42.246Z,5.18
2023-01-22T08:56:09.113Z,5.80
2023-01-22T08:58:35.743Z,6.18
2023-01-22T09:01:02.683Z,5.60
2023-01-22T09:03:29.562Z,5.70
2023-01-22T09:05:58.676Z,5.88
2023-01-22T09:08:25.384Z,4.88
2023-01-22T09:10:52.116Z,3.95
2023-01-22T09:13:18.875Z,4.68
2023-01-22T09:15:45.529Z,4.85
2023-01-22T09:18:12.227Z,7.15
2023-01-22T09:20:38.831Z,5.22
2023-01-22T09:23:05.537Z,6.35
2023-01-22T09:25:32.174Z,7.03
2023-01-22T09:28:02.659Z,5.15
2023-01-22T09:30:30.465Z,6.30
2023-01-22T09:32:57.462Z,6.03
2023-01-22T09:35:24.266Z,6.43
2023-01-22T09:37:50.918Z,5.35
2023-01-22T09:40:39.990Z,6.88
2023-01-22T09:43:21.258Z,8.25
2023-01-22T09:45:52.892Z,6.00
2023-01-22T09:48:19.802Z,6.28
2023-01-22T09:50:46.942Z,5.82
2023-01-22T09:53:17.499Z,6.13
2023-01-22T09:55:47.271Z,6.88
2023-01-22T09:58:20.318Z,7.07
2023-01-22T10:01:00.210Z,7.80
2023-01-22T10:03:34.376Z,6.50
2023-01-22T10:06:13.584Z,6.82
2023-01-22T10:08:59.358Z,5.90
2023-01-22T10:11:26.414Z,6.40
2023-01-22T10:13:59.167Z,6.57
2023-01-22T10:16:26.148Z,6.22
2023-01-22T10:19:19.972Z,7.00
2023-01-22T10:22:04.385Z,6.38
2023-01-22T10:24:31.017Z,6.88
2023-01-22T10:26:59.306Z,7.50
2023-01-22T10:29:37.076Z,7.70
2023-01-22T10:32:18.865Z,6.97
2023-01-22T10:35:11.979Z,5.63
2023-01-22T10:37:51.031Z,6.60
2023-01-22T10:40:37.875Z,5.82
2023-01-22T10:43:13.954Z,5.90
2023-01-22T10:45:59.481Z,5.82
2023-01-22T10:48:26.628Z,4.95
2023-01-22T10:51:01.538Z,5.13
2023-01-22T10:53:35.701Z,6.38
2023-01-22T10:56:04.682Z,4.95
2023-01-22T10:58:35.948Z,6.28
2023-01-22T11:01:31.320Z,6.60
2023-01-22T11:03:58.061Z,6.53
2023-01-22T11:06:36.776Z,6.38
2023-01-22T11:09:17.435Z,7.47
2023-01-22T11:11:50.716Z,7.95
2023-01-22T11:14:25.964Z,6.40
2023-01-22T11:16:56.653Z,7.70
2023-01-22T11:19:36.892Z,7.97
2023-01-22T11:24:42.793Z,4.80
2023-01-22T11:27:24.297Z,7.85
2023-01-22T11:30:18.611Z,6.47
2023-01-22T11:33:14.747Z,7.07
2023-01-22T11:36:03.942Z,6.63
2023-01-22T11:38:42.934Z,6.60
2023-01-22T11:41:18.735Z,6.97
2023-01-22T11:44:12.834Z,7.10
2023-01-22T11:46:47.240Z,6.80
2023-01-22T11:49:29.808Z,7.38
2023-01-22T11:52:18.186Z,6.15
2023-01-22T11:54:55.274Z,6.78
2023-01-22T11:57:34.094Z,5.70
2023-01-22T12:00:24.764Z,7.00
2023-01-22T12:03:08.870Z,6.07
2023-01-22T12:06:04.180Z,7.07
2023-01-22T12:09:02.031Z,6.60
2023-01-22T12:11:46.776Z,5.93
2023-01-22T12:14:31.725Z,7.13
2023-01-22T12:17:29.367Z,6.68
2023-01-22T12:20:20.954Z,6.20
2023-01-22T12:22:55.838Z,6.32
2023-01-22T12:25:50.947Z,6.75
2023-01-22T12:28:24.431Z,7.72
2023-01-22T12:31:12.444Z,7.03
2023-01-22T12:33:42.104Z,7.05
2023-01-22T12:36:13.320Z,6.55
2023-01-22T12:38:51.446Z,6.80
2023-01-22T12:41:36.784Z,6.43
2023-01-22T12:44:24.231Z,7.57
2023-01-22T12:46:59.862Z,8.50
2023-01-22T12:49:27.392Z,6.70
2023-01-22T12:51:55.927Z,6.55
2023-01-22T12:54:36.425Z,7.68
2023-01-22T12:57:22.934Z,6.95
2023-01-22T12:59:49.546Z,6.07
2023-01-22T13:02:35.465Z,7.00
2023-01-22T13:05:35.938Z,8.10
2023-01-22T13:08:22.933Z,7.30
2023-01-22T13:10:58.361Z,7.05
2023-01-22T13:13:44.937Z,7.20
2023-01-22T13:16:27.388Z,8.10
2023-01-22T13:18:58.516Z,7.65
2023-01-22T13:21:32.804Z,6.85
2023-01-22T13:24:05.813Z,7.97
2023-01-22T13:26:34.846Z,8.05
2023-01-22T13:29:28.019Z,8.00
2023-01-22T13:32:01.322Z,7.00
2023-01-22T13:34:29.009Z,7.40
2023-01-22T13:36:56.603Z,6.68
2023-01-22T13:39:29.711Z,8.02
2023-01-22T13:42:02.022Z,7.00
2023-01-22T13:44:34.032Z,7.32
2023-01-22T13:47:01.449Z,9.15
2023-01-22T13:49:30.448Z,6.50
2023-01-22T13:52:03.487Z,7.60
2023-01-22T13:54:32.767Z,7.45
2023-01-22T13:56:59.726Z,6.85
2023-01-22T13:59:34.928Z,6.25
2023-01-22T14:02:21.839Z,7.43
2023-01-22T14:04:49.461Z,7.78
2023-01-22T14:07:27.793Z,8.27
2023-01-22T14:09:56.408Z,7.95
2023-01-22T14:12:26.623Z,7.78
2023-01-22T14:14:54.534Z,6.97
2023-01-22T14:17:30.225Z,7.50
2023-01-22T14:19:57.905Z,8.43
2023-01-22T14:22:25.118Z,7.28
2023-01-22T14:24:52.851Z,6.97
2023-01-22T14:27:47.371Z,7.72
2023-01-22T14:30:16.577Z,8.10
2023-01-22T14:32:44.383Z,7.82
2023-01-22T14:35:20.056Z,8.18
2023-01-22T14:37:47.283Z,7.03
2023-01-22T14:40:17.554Z,7.70
2023-01-22T14:42:45.121Z,7.95
2023-01-22T14:45:12.369Z,7.70
2023-01-22T14:47:39.235Z,7.22
2023-01-22T14:50:07.321Z,7.45
2023-01-22T14:52:34.099Z,8.55
2023-01-22T14:55:00.966Z,7.25
2023-01-22T14:57:27.656Z,7.70
2023-01-22T14:59:54.362Z,7.65
2023-01-22T15:02:21.047Z,8.32
2023-01-22T15:04:47.843Z,7.70
2023-01-22T15:07:14.569Z,7.93
2023-01-22T15:09:41.197Z,8.15
2023-01-22T15:12:08.049Z,9.15
2023-01-22T15:14:34.772Z,8.40
2023-01-22T15:17:01.421Z,7.28
2023-01-22T15:19:32.151Z,9.25
2023-01-22T15:22:03.581Z,8.25
2023-01-22T15:24:30.283Z,9.85
2023-01-22T15:26:56.950Z,8.45
2023-01-22T15:29:23.755Z,8.63
2023-01-22T15:31:50.443Z,8.10
2023-01-22T15:34:17.212Z,8.43
2023-01-22T15:36:43.830Z,9.75
2023-01-22T15:39:10.476Z,8.13
2023-01-22T15:41:37.458Z,9.25
2023-01-22T15:44:05.467Z,8.30
2023-01-22T15:46:35.277Z,9.48
2023-01-22T15:49:03.251Z,8.45
2023-01-22T15:51:30.136Z,12.45
2023-01-22T15:54:01.583Z,8.95
2023-01-22T15:56:31.217Z,8.32
2023-01-22T15:58:58.370Z,9.93
2023-01-22T16:01:26.491Z,8.77
2023-01-22T16:03:53.569Z,8.75
2023-01-22T16:06:25.772Z,8.50
2023-01-22T16:08:54.462Z,9.00
2023-01-22T16:11:21.789Z,9.57
2023-01-22T16:13:48.520Z,7.82
2023-01-22T16:16:26.764Z,5.80
2023-01-22T16:18:54.574Z,7.95
2023-01-22T16:21:22.471Z,8.70
2023-01-22T16:23:53.374Z,8.73
2023-01-22T16:26:28.633Z,7.63
2023-01-22T16:28:57.646Z,7.20
2023-01-22T16:31:29.850Z,8.15
2023-01-22T16:34:05.772Z,9.02
2023-01-22T16:36:33.387Z,8.75
2023-01-22T16:39:01.146Z,7.60
2023-01-22T16:41:33.144Z,7.53
2023-01-22T16:44:12.467Z,8.55
2023-01-22T16:46:42.630Z,7.78
2023-01-22T16:49:17.713Z,7.15
2023-01-22T16:51:50.020Z,10.38
2023-01-22T16:54:19.687Z,9.32
2023-01-22T16:56:47.230Z,10.25
2023-01-22T16:59:16.157Z,8.20
2023-01-22T17:01:43.495Z,7.80
2023-01-22T17:04:10.320Z,8.93
2023-01-22T17:06:52.244Z,8.18
2023-01-22T17:09:28.940Z,9.77
2023-01-22T17:12:04.132Z,7.05
2023-01-22T17:14:36.148Z,8.52
2023-01-22T17:17:04.436Z,9.95
2023-01-22T17:19:31.334Z,9.82
2023-01-22T17:21:59.537Z,9.63
2023-01-22T17:24:28.602Z,10.48
2023-01-22T17:26:58.308Z,9.57
2023-01-22T17:29:25.453Z,8.70
2023-01-22T17:46:20.280Z,10.55
2023-01-22T17:51:30.211Z,10.40
2023-01-22T17:53:59.651Z,10.77
2023-01-22T17:56:30.052Z,10.30
2023-01-22T17:58:59.232Z,10.13
2023-01-22T18:01:28.745Z,9.82
2023-01-22T18:03:58.198Z,10.98
2023-01-22T18:06:24.860Z,10.95
2023-01-22T18:08:51.598Z,11.70
2023-01-22T18:11:20.933Z,11.60
2023-01-22T18:13:48.317Z,10.95
2023-01-22T18:16:16.851Z,12.77
2023-01-22T18:18:44.308Z,11.57
2023-01-22T18:21:16.169Z,11.60
2023-01-22T18:23:44.029Z,10.25
2023-01-22T18:26:11.490Z,10.82
2023-01-22T18:28:39.031Z,11.50
2023-01-22T18:44:39.117Z,11.43
2023-01-22T18:47:11.171Z,15.75
2023-01-22T18:49:38.240Z,14.35
2023-01-22T18:52:05.296Z,14.57
2023-01-22T18:54:32.711Z,14.68
2023-01-22T18:57:02.669Z,13.77
2023-01-22T18:59:29.693Z,13.80
2023-01-22T19:01:57.419Z,13.10
2023-01-22T19:04:24.759Z,12.38
2023-01-22T19:06:53.509Z,13.27
2023-01-22T19:09:21.106Z,14.38
2023-01-22T19:11:51.556Z,13.50
2023-01-22T19:14:21.100Z,15.07
2023-01-22T19:16:51.553Z,14.65
2023-01-22T19:19:19.462Z,14.25
2023-01-22T19:21:55.457Z,14.27
2023-01-22T19:24:24.986Z,12.68
2023-01-22T19:26:52.363Z,14.50
2023-01-22T19:29:19.486Z,12.73
2023-01-22T19:31:52.294Z,14.25
2023-01-22T19:34:23.699Z,15.23
2023-01-22T19:36:56.514Z,14.25
2023-01-22T19:39:25.418Z,13.77
2023-01-22T19:41:52.333Z,14.35
2023-01-22T19:44:19.196Z,13.07
2023-01-22T19:46:46.359Z,13.80
2023-01-22T19:49:13.561Z,15.30
2023-01-22T19:51:40.633Z,15.07
2023-01-22T19:54:08.616Z,14.32
2023-01-22T19:56:36.757Z,14.20
2023-01-22T19:59:15.561Z,14.23
2023-01-22T20:01:45.551Z,16.80
2023-01-22T20:04:25.300Z,14.35
2023-01-22T20:06:57.031Z,13.93
2023-01-22T20:09:23.992Z,14.57
2023-01-22T20:11:53.783Z,13.68
2023-01-22T20:14:23.010Z,15.73
2023-01-22T20:46:45.541Z,14.50
2023-01-22T20:49:13.104Z,13.02
2023-01-22T20:54:22.076Z,15.00
2023-01-22T21:16:49.819Z,12.17
2023-01-22T21:21:52.836Z,13.77
2023-01-22T21:24:19.905Z,12.75
2023-01-22T21:26:46.500Z,13.57
2023-01-22T21:29:16.291Z,15.15
2023-01-22T21:31:43.685Z,15.85
2023-01-22T21:34:11.821Z,15.25
2023-01-22T21:36:40.861Z,14.40
2023-01-22T21:39:13.526Z,13.88
2023-01-22T21:41:41.289Z,16.48
2023-01-22T21:44:29.675Z,14.27
2023-01-22T21:46:56.342Z,15.52
2023-01-22T21:49:24.535Z,12.88
2023-01-22T21:51:57.953Z,14.40
2023-01-22T21:54:27.147Z,14.05
2023-01-22T21:56:54.983Z,14.40
2023-01-22T21:59:22.316Z,13.05
2023-01-22T22:01:54.422Z,13.93
2023-01-22T22:04:23.589Z,15.25
2023-01-22T22:06:50.298Z,12.90
2023-01-22T22:09:20.209Z,12.88
2023-01-22T22:11:46.926Z,12.47
2023-01-22T22:14:20.237Z,13.15
2023-01-22T22:16:48.269Z,10.82
2023-01-22T22:19:15.483Z,13.60
2023-01-22T22:21:42.667Z,12.18
2023-01-22T22:24:09.976Z,14.40
2023-01-22T22:26:37.816Z,12.27
2023-01-22T22:29:06.186Z,14.68
2023-01-22T22:31:33.465Z,11.60
2023-01-22T22:34:00.259Z,11.60
2023-01-22T22:36:29.154Z,10.73
2023-01-22T22:38:57.563Z,11.15
2023-01-22T22:41:27.642Z,12.48
2023-01-22T22:43:55.962Z,12.88
2023-01-22T22:46:31.165Z,11.73
2023-01-22T22:49:00.209Z,11.25
2023-01-22T22:51:30.804Z,10.68
2023-01-22T22:53:59.956Z,10.20
2023-01-22T22:56:28.029Z,9.80
2023-01-22T22:58:55.878Z,9.00
2023-01-22T23:01:25.076Z,9.23
2023-01-22T23:03:53.647Z,9.13
2023-01-22T23:06:22.831Z,9.27
2023-01-22T23:08:54.916Z,8.45
2023-01-22T23:11:25.371Z,8.90
2023-01-22T23:13:52.707Z,9.15
2023-01-22T23:16:22.623Z,8.25
2023-01-22T23:18:51.720Z,6.90
2023-01-22T23:21:40.599Z,9.00
2023-01-22T23:24:12.289Z,10.98
2023-01-22T23:32:02.511Z,12.40
2023-01-22T23:34:29.360Z,13.38
2023-01-22T23:36:55.964Z,14.25
2023-01-22T23:39:22.669Z,13.77
2023-01-22T23:41:49.450Z,15.55
2023-01-22T23:44:16.115Z,12.90
2023-01-22T23:46:42.807Z,12.73
2023-01-22T23:49:10.541Z,13.10
2023-01-22T23:51:40.975Z,12.60
2023-01-22T23:54:08.666Z,14.73
2023-01-22T23:56:35.521Z,12.63
2023-01-22T23:59:02.207Z,13.00
